Time;durP1;ratioP1;P1;durP2;ratioP2;P2;SDS_P1;SDS_P2;PMS_P1;PMS_P2;Temp;Humidity;BMP_temperature;BMP_pressure;BME280_temperature;BME280_humidity;BME280_pressure;Samples;Min_cycle;Max_cycle;Signal;HPM_P1;HPM_P2
2021/06/28 00:01:19;;;;;;;;;;;;;;;25.07;57.04;100629.84;5028589;28;687;-64
2021/06/28 00:04:04;;;;;;;;;;;;;;;25.08;56.52;100628.88;5028776;28;1981;-64
2021/06/28 00:06:49;;;;;;;;;;;;;;;25.05;56.34;100625.63;5028805;28;1240;-64
2021/06/28 00:09:36;;;;;;;;;;;;;;;25.02;56.13;100621.38;5028261;28;1048;-64
2021/06/28 00:12:21;;;;;;;;;;;;;;;25.05;55.83;100613.13;5028349;28;1283;-64
2021/06/28 00:15:09;;;;;;;;;;;;;;;25.05;55.67;100621.13;5034327;28;1031;-63
2021/06/28 00:17:55;;;;;;;;;;;;;;;25.01;55.88;100630.38;5048171;28;1627;-64
2021/06/28 00:20:43;;;;;;;;;;;;;;;24.95;55.55;100622.91;5046555;28;1064;-64
2021/06/28 00:23:28;;;;;;;;;;;;;;;24.98;55.39;100614.66;5027119;28;1985;-63
2021/06/28 00:26:13;;;;;;;;;;;;;;;24.94;55.64;100616.72;5028181;28;577;-64
2021/06/28 00:28:58;;;;;;;;;;;;;;;24.91;55.63;100614.31;5028424;28;1059;-65
2021/06/28 00:31:46;;;;;;;;;;;;;;;24.92;55.36;100608.03;5029806;28;1369;-65
2021/06/28 00:34:31;;;;;;;;;;;;;;;24.91;55.17;100608.16;5048066;28;1080;-64
2021/06/28 00:37:16;;;;;;;;;;;;;;;24.79;55.17;100606.50;5047549;28;1223;-64
2021/06/28 00:40:06;;;;;;;;;;;;;;;24.77;54.90;100606.63;5047911;28;978;-64
2021/06/28 00:42:52;;;;;;;;;;;;;;;24.79;54.64;100610.00;5047712;28;1299;-62
2021/06/28 00:45:39;;;;;;;;;;;;;;;24.79;54.71;100604.69;5047871;28;1893;-63
2021/06/28 00:48:25;;;;;;;;;;;;;;;24.81;54.70;100608.06;5059972;28;1218;-62
2021/06/28 00:51:11;;;;;;;;;;;;;;;24.71;54.98;100603.63;5046535;28;703;-63
2021/06/28 00:53:56;;;;;;;;;;;;;;;24.71;54.79;100603.63;5047597;28;1047;-62
2021/06/28 00:56:41;;;;;;;;;;;;;;;24.73;54.94;100604.34;5047601;28;1315;-64
2021/06/28 00:59:27;;;;;;;;;;;;;;;24.65;55.13;100601.50;5047847;28;1072;-63
2021/06/28 01:02:12;;;;;;;;;;;;;;;24.68;55.15;100595.91;5047670;28;1374;-64
2021/06/28 01:04:57;;;;;;;;;;;;;;;24.67;55.49;100586.22;5047992;28;1906;-62
2021/06/28 01:07:43;;;;;;;;;;;;;;;24.66;55.47;100592.50;5047473;28;1288;-63
2021/06/28 01:10:29;;;;;;;;;;;;;;;24.63;55.76;100587.44;5047917;28;1029;-62
2021/06/28 01:13:14;;;;;;;;;;;;;;;24.65;55.56;100590.84;5046474;28;1229;-63
2021/06/28 01:16:01;;;;;;;;;;;;;;;24.70;55.14;100580.63;5047509;28;714;-63
2021/06/28 01:18:46;;;;;;;;;;;;;;;24.67;55.21;100576.41;5048304;28;1494;-62
2021/06/28 01:21:33;;;;;;;;;;;;;;;24.68;55.02;100574.59;5051331;28;1371;-63
2021/06/28 01:24:18;;;;;;;;;;;;;;;24.66;55.23;100573.84;5063903;28;1906;-62
2021/06/28 01:27:03;;;;;;;;;;;;;;;24.63;55.29;100572.31;5050992;28;1296;-62
2021/06/28 01:29:49;;;;;;;;;;;;;;;24.60;55.13;100571.72;5063534;28;934;-62
2021/06/28 01:32:35;;;;;;;;;;;;;;;24.59;54.91;100570.91;5050838;28;1308;-62
2021/06/28 01:35:21;;;;;;;;;;;;;;;24.61;54.73;100571.59;5050739;28;1085;-62
2021/06/28 01:38:07;;;;;;;;;;;;;;;24.55;54.96;100576.59;5050849;28;1224;-63
2021/06/28 01:40:54;;;;;;;;;;;;;;;24.59;54.66;100570.91;5051151;28;705;-63
2021/06/28 01:43:40;;;;;;;;;;;;;;;24.57;54.45;100561.31;5050717;28;1253;-64
2021/06/28 01:46:26;;;;;;;;;;;;;;;24.56;54.35;100570.31;5050698;28;1356;-64
2021/06/28 01:49:11;;;;;;;;;;;;;;;24.51;54.43;100572.50;5049335;28;1102;-63
2021/06/28 01:51:57;;;;;;;;;;;;;;;24.53;54.19;100563.38;5049666;28;1285;-63
2021/06/28 01:54:42;;;;;;;;;;;;;;;24.54;54.18;100558.91;5050472;28;1043;-64
2021/06/28 01:57:27;;;;;;;;;;;;;;;24.54;54.34;100561.56;5050382;28;1376;-63
2021/06/28 02:00:15;;;;;;;;;;;;;;;24.52;54.21;100563.53;5050653;28;1116;-64
2021/06/28 02:03:04;;;;;;;;;;;;;;;24.48;54.26;100569.13;5050740;28;1331;-64
2021/06/28 02:05:57;;;;;;;;;;;;;;;24.48;54.13;100568.25;5050780;28;1901;-64
2021/06/28 02:08:43;;;;;;;;;;;;;;;24.52;53.95;100552.88;5050934;28;1417;-63
2021/06/28 02:11:28;;;;;;;;;;;;;;;24.47;53.92;100556.78;5050507;28;1350;-62
2021/06/28 02:14:13;;;;;;;;;;;;;;;24.53;53.94;100557.25;5050485;28;1006;-62
2021/06/28 02:16:59;;;;;;;;;;;;;;;24.51;53.93;100548.53;5050282;28;1514;-62
2021/06/28 02:19:47;;;;;;;;;;;;;;;24.36;53.86;100532.03;5050530;28;1040;-63
2021/06/28 02:22:32;;;;;;;;;;;;;;;24.41;53.96;100546.63;5050206;28;1290;-63
2021/06/28 02:25:18;;;;;;;;;;;;;;;24.43;53.89;100546.53;5050513;28;1910;-64
2021/06/28 02:28:04;;;;;;;;;;;;;;;24.42;53.84;100553.66;5049886;28;1325;-64
2021/06/28 02:30:49;;;;;;;;;;;;;;;24.41;53.66;100540.47;5050255;28;660;-64
2021/06/28 02:33:35;;;;;;;;;;;;;;;24.39;53.49;100545.06;5049252;28;1300;-68
2021/06/28 02:36:22;;;;;;;;;;;;;;;24.39;53.51;100537.94;5049851;28;1330;-68
2021/06/28 02:39:07;;;;;;;;;;;;;;;24.39;53.67;100547.75;5049914;28;1125;-68
2021/06/28 02:41:53;;;;;;;;;;;;;;;24.43;53.58;100536.72;5050417;28;1362;-69
2021/06/28 02:44:38;;;;;;;;;;;;;;;24.40;53.45;100536.97;5050374;28;1985;-68
2021/06/28 02:47:23;;;;;;;;;;;;;;;24.44;53.39;100535.72;5049933;28;1361;-68
2021/06/28 02:50:10;;;;;;;;;;;;;;;24.50;53.26;100538.88;5050042;28;1148;-68
2021/06/28 02:52:55;;;;;;;;;;;;;;;24.40;53.33;100534.31;5048894;28;1189;-68
2021/06/28 02:55:41;;;;;;;;;;;;;;;24.39;53.01;100537.94;5049875;28;1083;-68
2021/06/28 02:58:26;;;;;;;;;;;;;;;24.40;52.88;100539.63;5049822;28;1281;-68
2021/06/28 03:01:13;;;;;;;;;;;;;;;24.39;52.45;100535.28;5049780;28;699;-68
2021/06/28 03:03:58;;;;;;;;;;;;;;;24.41;52.23;100529.81;5049733;28;1070;-68
2021/06/28 03:06:43;;;;;;;;;;;;;;;24.36;52.46;100527.53;5049864;28;1363;-68
2021/06/28 03:09:28;;;;;;;;;;;;;;;24.39;52.26;100526.44;5049851;28;1071;-69
2021/06/28 03:12:14;;;;;;;;;;;;;;;24.37;52.13;100528.41;5049636;28;1370;-69
2021/06/28 03:14:59;;;;;;;;;;;;;;;24.30;52.28;100530.72;5049932;28;1031;-69
2021/06/28 03:17:44;;;;;;;;;;;;;;;24.30;52.31;100528.06;5049494;28;1594;-68
2021/06/28 03:20:30;;;;;;;;;;;;;;;24.33;52.22;100533.13;5049872;28;1067;-68
2021/06/28 03:23:15;;;;;;;;;;;;;;;24.35;52.29;100533.84;5049279;28;1375;-67
2021/06/28 03:26:00;;;;;;;;;;;;;;;24.34;52.40;100521.53;5049116;28;1906;-68
2021/06/28 03:28:46;;;;;;;;;;;;;;;24.40;52.24;100522.81;5049288;28;1335;-68
2021/06/28 03:31:32;;;;;;;;;;;;;;;24.42;52.17;100520.84;5049551;28;1228;-68
2021/06/28 03:34:18;;;;;;;;;;;;;;;24.39;52.48;100511.31;5050031;28;1051;-68
2021/06/28 03:37:04;;;;;;;;;;;;;;;24.40;52.45;100507.69;5049553;28;1355;-69
2021/06/28 03:39:49;;;;;;;;;;;;;;;24.43;52.83;100509.25;5049672;28;1026;-67
2021/06/28 03:42:35;;;;;;;;;;;;;;;24.38;52.84;100512.28;5049198;28;1363;-67
2021/06/28 03:45:21;;;;;;;;;;;;;;;24.38;52.92;100506.97;5063966;28;1931;-67
2021/06/28 03:48:07;;;;;;;;;;;;;;;24.35;52.96;100515.19;5051531;28;1358;-67
2021/06/28 03:50:53;;;;;;;;;;;;;;;24.39;53.10;100508.66;5050382;28;628;-68
2021/06/28 03:53:38;;;;;;;;;;;;;;;24.43;53.10;100509.25;5048935;28;1517;-67
2021/06/28 03:56:24;;;;;;;;;;;;;;;24.45;53.48;100504.63;5048544;28;1289;-67
2021/06/28 03:59:09;;;;;;;;;;;;;;;24.48;53.24;100513.19;5061214;28;1131;-67
2021/06/28 04:01:54;;;;;;;;;;;;;;;24.47;53.58;100505.31;5048482;28;1233;-68
2021/06/28 04:04:47;;;;;;;;;;;;;;;24.43;53.68;100507.44;5048675;28;1906;-68
2021/06/28 04:07:32;;;;;;;;;;;;;;;24.45;53.88;100508.13;5060041;28;1290;-67
2021/06/28 04:10:19;;;;;;;;;;;;;;;24.48;54.07;100510.53;5048089;28;1067;-66
2021/06/28 04:13:04;;;;;;;;;;;;;;;24.43;54.40;100523.41;5048218;28;1272;-68
2021/06/28 04:15:49;;;;;;;;;;;;;;;24.43;54.48;100517.22;5048345;28;631;-68
2021/06/28 04:18:35;;;;;;;;;;;;;;;24.41;54.90;100519.16;5048470;28;1245;-68
2021/06/28 04:21:20;;;;;;;;;;;;;;;24.43;55.11;100522.56;5061111;28;616;-68
2021/06/28 04:24:06;;;;;;;;;;;;;;;24.43;55.07;100522.56;5061038;28;918;-68
2021/06/28 04:26:51;;;;;;;;;;;;;;;24.40;55.46;100526.31;5047804;28;1306;-69
2021/06/28 04:29:36;;;;;;;;;;;;;;;24.37;55.81;100539.91;5047945;28;1039;-68
2021/06/28 04:32:22;;;;;;;;;;;;;;;24.32;55.55;100547.41;5047393;28;1360;-68
2021/06/28 04:35:08;;;;;;;;;;;;;;;24.34;53.90;100550.81;5047352;28;1050;-69
2021/06/28 04:37:55;;;;;;;;;;;;;;;24.31;53.04;100552.88;5047394;28;1268;-69
2021/06/28 04:40:40;;;;;;;;;;;;;;;24.30;52.84;100556.50;5048364;28;1044;-69
2021/06/28 04:43:26;;;;;;;;;;;;;;;24.30;52.28;100554.69;5047534;28;1227;-68
2021/06/28 04:46:11;;;;;;;;;;;;;;;24.30;52.09;100560.00;5047410;28;1973;-69
2021/06/28 04:48:56;;;;;;;;;;;;;;;24.28;52.39;100569.94;5060467;28;1173;-69
2021/06/28 04:51:42;;;;;;;;;;;;;;;24.30;52.44;100557.34;5047741;28;1449;-69
2021/06/28 04:54:27;;;;;;;;;;;;;;;24.28;53.10;100564.63;5049503;28;1129;-69
2021/06/28 04:57:16;;;;;;;;;;;;;;;24.29;53.55;100566.28;5052052;28;1295;-69
2021/06/28 05:00:03;;;;;;;;;;;;;;;24.31;54.09;100575.00;5051973;28;937;-69
2021/06/28 05:02:49;;;;;;;;;;;;;;;24.34;54.64;100566.78;5050429;28;1388;-69
2021/06/28 05:05:34;;;;;;;;;;;;;;;24.37;55.08;100569.19;5051176;28;1922;-69
2021/06/28 05:08:20;;;;;;;;;;;;;;;24.36;55.58;100582.59;5051531;28;1371;-68
2021/06/28 05:11:06;;;;;;;;;;;;;;;24.39;55.76;100583.19;5051701;28;524;-68
2021/06/28 05:13:51;;;;;;;;;;;;;;;24.39;56.08;100579.69;5064262;28;964;-68
2021/06/28 05:16:36;;;;;;;;;;;;;;;24.36;56.68;100586.13;5051214;28;1478;-68
2021/06/28 05:19:21;;;;;;;;;;;;;;;24.34;57.12;100604.03;5051750;28;982;-68
2021/06/28 05:22:07;;;;;;;;;;;;;;;24.39;56.92;100598.31;5051288;28;1205;-68
2021/06/28 05:24:52;;;;;;;;;;;;;;;24.43;56.93;100592.63;5051365;28;1989;-68
2021/06/28 05:27:38;;;;;;;;;;;;;;;24.53;56.77;100584.69;5049387;28;1331;-68
2021/06/28 05:30:23;;;;;;;;;;;;;;;24.59;56.46;100596.69;5045138;28;1324;-68
2021/06/28 05:33:08;;;;;;;;;;;;;;;24.63;56.36;100603.41;5048660;28;1344;-68
2021/06/28 05:35:54;;;;;;;;;;;;;;;24.68;56.12;100595.91;5049695;28;1060;-68
2021/06/28 05:38:39;;;;;;;;;;;;;;;24.69;56.09;100603.75;5047056;28;1303;-69
2021/06/28 05:41:24;;;;;;;;;;;;;;;24.70;55.91;100604.59;5048156;28;1343;-67
2021/06/28 05:44:10;;;;;;;;;;;;;;;24.73;55.72;100599.00;5048132;28;1120;-67
2021/06/28 05:46:55;;;;;;;;;;;;;;;24.74;55.71;100606.03;5048843;28;1910;-68
2021/06/28 05:49:42;;;;;;;;;;;;;;;24.77;55.63;100616.44;5047072;28;1050;-68
2021/06/28 05:52:27;;;;;;;;;;;;;;;24.78;55.86;100613.63;5047983;28;1355;-67
2021/06/28 05:55:13;;;;;;;;;;;;;;;24.80;55.67;100622.34;5048987;28;1055;-66
2021/06/28 05:57:58;;;;;;;;;;;;;;;24.81;55.75;100620.53;5046683;28;1316;-67
2021/06/28 06:00:44;;;;;;;;;;;;;;;24.83;55.48;100627.47;5047572;28;1168;-67
2021/06/28 06:03:29;;;;;;;;;;;;;;;24.84;55.38;100618.47;5047537;28;1336;-68
2021/06/28 06:06:15;;;;;;;;;;;;;;;24.87;55.81;100617.38;5045769;28;1906;-68
2021/06/28 06:09:00;;;;;;;;;;;;;;;24.88;55.86;100624.41;5045935;28;1031;-69
2021/06/28 06:11:45;;;;;;;;;;;;;;;24.88;55.54;100629.72;5045888;28;1429;-67
2021/06/28 06:14:30;;;;;;;;;;;;;;;24.89;55.44;100634.09;5046630;28;1138;-68
2021/06/28 06:17:15;;;;;;;;;;;;;;;24.92;55.67;100626.69;5047954;28;1359;-67
2021/06/28 06:20:01;;;;;;;;;;;;;;;24.92;55.69;100625.84;5048400;28;1594;-67
2021/06/28 06:22:46;;;;;;;;;;;;;;;24.93;55.75;100627.50;5046541;28;1398;-66
2021/06/28 06:25:32;;;;;;;;;;;;;;;24.93;55.56;100631.00;5048271;28;1906;-68
2021/06/28 06:28:17;;;;;;;;;;;;;;;24.95;55.11;100625.56;5048196;28;1288;-68
2021/06/28 06:31:02;;;;;;;;;;;;;;;24.95;54.83;100628.25;5046035;28;1095;-69
2021/06/28 06:33:48;;;;;;;;;;;;;;;24.95;54.86;100631.75;5046856;28;1115;-69
2021/06/28 06:36:33;;;;;;;;;;;;;;;24.96;54.81;100632.56;5046673;28;1382;-68
2021/06/28 06:39:19;;;;;;;;;;;;;;;24.97;54.50;100644.94;5043815;28;1147;-69
2021/06/28 06:42:04;;;;;;;;;;;;;;;24.96;53.96;100641.41;5046160;28;1348;-68
2021/06/28 06:44:50;;;;;;;;;;;;;;;24.99;53.97;100632.31;5047413;28;1111;-68
2021/06/28 06:47:35;;;;;;;;;;;;;;;25.00;53.86;100628.69;5048179;28;1311;-67
2021/06/28 06:50:20;;;;;;;;;;;;;;;24.99;53.68;100635.81;5045953;28;1101;-68
2021/06/28 06:53:06;;;;;;;;;;;;;;;25.01;53.66;100646.38;5046386;28;1296;-67
2021/06/28 06:55:51;;;;;;;;;;;;;;;25.02;53.93;100647.22;5046873;28;1166;-66
2021/06/28 06:58:37;;;;;;;;;;;;;;;25.02;54.12;100646.22;5047243;28;1312;-68
2021/06/28 07:01:23;;;;;;;;;;;;;;;25.03;54.16;100660.41;5045394;28;1398;-69
2021/06/28 07:04:08;;;;;;;;;;;;;;;25.02;53.94;100664.03;5043738;28;1230;-72
2021/06/28 07:06:54;;;;;;;;;;;;;;;24.95;53.81;100665.53;5046723;28;1969;-68
2021/06/28 07:09:39;;;;;;;;;;;;;;;24.92;54.51;100665.81;5044401;28;1097;-68
2021/06/28 07:12:24;;;;;;;;;;;;;;;24.92;54.93;100666.66;5043914;28;1374;-68
2021/06/28 07:15:12;;;;;;;;;;;;;;;24.92;54.47;100671.97;5045631;28;1059;-69
2021/06/28 07:17:58;;;;;;;;;;;;;;;24.88;55.30;100667.03;5045683;28;1429;-70
2021/06/28 07:20:44;;;;;;;;;;;;;;;24.89;54.50;100674.06;5041471;28;1605;-68
2021/06/28 07:23:30;;;;;;;;;;;;;;;24.90;54.39;100683.72;5045558;28;1260;-67
2021/06/28 07:26:15;;;;;;;;;;;;;;;24.96;54.21;100680.53;5046720;28;1964;-65
2021/06/28 07:29:01;;;;;;;;;;;;;;;24.85;54.77;100669.94;5042636;28;1239;-66
2021/06/28 07:31:47;;;;;;;;;;;;;;;24.89;55.05;100666.91;5042695;28;1256;-66
2021/06/28 07:34:33;;;;;;;;;;;;;;;24.81;55.46;100660.50;5043941;28;1103;-66
2021/06/28 07:37:18;;;;;;;;;;;;;;;24.88;55.91;100672.34;5046220;28;1405;-67
2021/06/28 07:40:05;;;;;;;;;;;;;;;24.84;57.14;100671.75;5046381;28;1167;-67
2021/06/28 07:42:51;;;;;;;;;;;;;;;24.89;57.24;100676.72;5044280;28;1333;-67
2021/06/28 07:45:37;;;;;;;;;;;;;;;24.89;57.75;100676.72;5045206;28;1988;-68
2021/06/28 07:48:22;;;;;;;;;;;;;;;24.93;58.50;100675.47;5044136;28;1400;-68
2021/06/28 07:51:08;;;;;;;;;;;;;;;24.98;58.29;100673.28;5042884;28;1336;-66
2021/06/28 07:53:53;;;;;;;;;;;;;;;25.04;58.23;100683.41;5045865;28;1181;-71
2021/06/28 07:56:38;;;;;;;;;;;;;;;25.07;58.15;100677.84;5046839;28;1342;-75
2021/06/28 07:59:23;;;;;;;;;;;;;;;25.11;57.81;100684.56;5042967;28;1181;-71
2021/06/28 08:02:09;;;;;;;;;;;;;;;25.19;58.24;100681.28;5026877;28;1300;-71
2021/06/28 08:04:56;;;;;;;;;;;;;;;25.23;57.29;100678.19;5034150;28;1430;-71
2021/06/28 08:07:42;;;;;;;;;;;;;;;25.26;57.87;100677.94;5041869;28;1902;-69
2021/06/28 08:10:27;;;;;;;;;;;;;;;25.25;56.84;100676.25;5047400;28;947;-69
2021/06/28 08:13:12;;;;;;;;;;;;;;;25.28;58.81;100681.34;5047070;28;1374;-69
2021/06/28 08:15:58;;;;;;;;;;;;;;;25.33;56.15;100683.59;5046713;28;651;-68
2021/06/28 08:18:44;;;;;;;;;;;;;;;25.36;58.17;100686.00;5046495;28;1264;-68
2021/06/28 08:21:51;;;;;;;;;;;;;;;25.33;58.42;100689.78;5046395;28;1235;-68
2021/06/28 08:24:37;;;;;;;;;;;;;;;25.37;59.27;100691.22;5045914;28;1196;-67
2021/06/28 08:27:22;;;;;;;;;;;;;;;25.40;59.49;100685.63;5046178;28;1906;-73
2021/06/28 08:30:09;;;;;;;;;;;;;;;25.39;59.67;100689.25;5064471;28;1212;-66
2021/06/28 08:32:54;;;;;;;;;;;;;;;25.37;57.20;100696.56;5066347;28;1233;-67
2021/06/28 08:35:41;;;;;;;;;;;;;;;25.41;58.81;100697.97;5066358;28;1659;-64
2021/06/28 08:38:26;;;;;;;;;;;;;;;25.39;59.19;100697.25;5051629;28;1157;-63
2021/06/28 08:41:16;;;;;;;;;;;;;;;25.44;58.11;100695.03;5046056;28;711;-65
2021/06/28 08:44:01;;;;;;;;;;;;;;;25.45;57.72;100686.06;5046329;28;1063;-63
2021/06/28 08:46:46;;;;;;;;;;;;;;;25.44;59.35;100695.03;5046041;28;1914;-63
2021/06/28 08:49:34;;;;;;;;;;;;;;;25.45;59.13;100699.38;5046628;28;1015;-63
2021/06/28 08:52:20;;;;;;;;;;;;;;;25.46;58.04;100697.56;5046394;28;1367;-65
2021/06/28 08:55:06;;;;;;;;;;;;;;;25.50;59.15;100691.88;5047021;28;1079;-64
2021/06/28 08:57:53;;;;;;;;;;;;;;;25.52;58.88;100700.59;5046114;28;1267;-66
2021/06/28 09:00:38;;;;;;;;;;;;;;;25.53;58.89;100686.25;5046944;28;979;-67
2021/06/28 09:03:25;;;;;;;;;;;;;;;25.53;58.17;100698.78;5045954;28;1233;-67
2021/06/28 09:06:10;;;;;;;;;;;;;;;25.53;57.43;100691.59;5046330;28;1902;-68
2021/06/28 09:08:59;;;;;;;;;;;;;;;25.55;57.61;100694.16;5046095;28;1112;-67
2021/06/28 09:11:45;;;;;;;;;;;;;;;25.51;56.98;100682.91;5045950;28;1280;-65
2021/06/28 09:14:43;;;;;;;;;;;;;;;25.59;57.55;100702.75;5046438;28;1056;-67
2021/06/28 09:17:31;;;;;;;;;;;;;;;25.50;57.48;100696.38;5045828;28;1276;-68
2021/06/28 09:20:18;;;;;;;;;;;;;;;25.60;58.54;100701.75;5046606;28;918;-69
2021/06/28 09:23:14;;;;;;;;;;;;;;;25.62;57.79;100702.47;5039526;28;1400;-65
2021/06/28 09:26:00;;;;;;;;;;;;;;;25.65;57.54;100712.88;5025485;28;1906;-65
2021/06/28 09:28:49;;;;;;;;;;;;;;;25.63;58.48;100698.81;5048435;28;1285;-66
2021/06/28 09:31:45;;;;;;;;;;;;;;;25.70;58.60;100702.63;5066023;28;1351;-67
2021/06/28 09:34:33;;;;;;;;;;;;;;;25.77;60.42;100706.47;5039186;28;1123;-72
2021/06/28 09:37:26;;;;;;;;;;;;;;;25.75;59.81;100709.25;5044724;28;1522;-68
2021/06/28 09:40:12;;;;;;;;;;;;;;;25.69;59.83;100706.28;5051595;28;1012;-69
2021/06/28 09:42:58;;;;;;;;;;;;;;;25.65;58.39;100710.22;5047762;28;1302;-69
2021/06/28 09:45:43;;;;;;;;;;;;;;;25.65;58.90;100712.88;5053376;28;1082;-69
2021/06/28 09:48:30;;;;;;;;;;;;;;;25.63;58.83;100707.66;5046070;28;1316;-70
2021/06/28 09:51:26;;;;;;;;;;;;;;;25.62;59.54;100710.47;5051520;28;683;-70
2021/06/28 09:54:15;;;;;;;;;;;;;;;25.60;59.67;100715.06;5031628;28;1037;-71
2021/06/28 09:57:00;;;;;;;;;;;;;;;25.58;58.94;100714.38;5045640;28;1280;-70
2021/06/28 09:59:45;;;;;;;;;;;;;;;25.59;59.65;100716.94;5050428;28;1109;-70
2021/06/28 10:02:36;;;;;;;;;;;;;;;25.57;59.20;100713.53;5051083;28;1276;-71
2021/06/28 10:05:25;;;;;;;;;;;;;;;25.58;59.70;100719.72;5051383;28;927;-71
2021/06/28 10:08:15;;;;;;;;;;;;;;;25.59;59.58;100722.25;5050675;28;1967;-70
2021/06/28 10:11:13;;;;;;;;;;;;;;;25.59;59.46;100718.75;5051554;28;667;-69
2021/06/28 10:14:00;;;;;;;;;;;;;;;25.54;59.45;100725.31;5051004;28;1115;-69
2021/06/28 10:16:47;;;;;;;;;;;;;;;25.56;59.91;100727.00;5050843;28;1549;-68
2021/06/28 10:19:32;;;;;;;;;;;;;;;25.59;59.66;100724.06;5050591;28;1117;-70
2021/06/28 10:22:17;;;;;;;;;;;;;;;25.62;59.24;100731.81;5050958;28;1276;-71
2021/06/28 10:25:03;;;;;;;;;;;;;;;25.63;59.21;100729.00;5050456;28;930;-70
2021/06/28 10:27:49;;;;;;;;;;;;;;;25.62;59.28;100726.47;5049536;28;1971;-71
2021/06/28 10:30:35;;;;;;;;;;;;;;;25.63;58.59;100733.47;5050156;28;1451;-71
2021/06/28 10:33:23;;;;;;;;;;;;;;;25.64;58.36;100724.50;5043436;28;1357;-70
2021/06/28 10:36:12;;;;;;;;;;;;;;;25.65;58.24;100724.41;5049425;28;669;-69
2021/06/28 10:38:57;;;;;;;;;;;;;;;25.65;59.25;100727.06;5053111;28;1392;-69
2021/06/28 10:41:52;;;;;;;;;;;;;;;25.63;58.91;100721.00;5049525;28;1359;-68
2021/06/28 10:44:48;;;;;;;;;;;;;;;25.67;58.73;100721.59;5059645;28;1123;-68
2021/06/28 10:47:33;;;;;;;;;;;;;;;25.67;59.09;100714.44;5036652;28;1911;-70
2021/06/28 10:50:19;;;;;;;;;;;;;;;25.67;58.38;100716.25;5050569;28;864;-69
2021/06/28 10:53:04;;;;;;;;;;;;;;;25.64;58.54;100711.19;5049392;28;1338;-69
2021/06/28 10:55:49;;;;;;;;;;;;;;;25.66;58.56;100717.22;5050526;28;615;-71
2021/06/28 10:58:34;;;;;;;;;;;;;;;25.68;58.14;100704.59;5049970;28;1265;-69
2021/06/28 11:01:33;;;;;;;;;;;;;;;25.68;57.94;100712.59;5050286;28;652;-71
2021/06/28 11:04:29;;;;;;;;;;;;;;;25.69;58.44;100711.59;5030355;28;1033;-69
2021/06/28 11:07:15;;;;;;;;;;;;;;;25.70;58.56;100710.66;5060957;28;1969;-70
2021/06/28 11:10:02;;;;;;;;;;;;;;;25.70;58.72;100705.31;5050130;28;966;-70
2021/06/28 11:12:54;;;;;;;;;;;;;;;25.74;58.66;100714.75;5048746;28;1380;-70
2021/06/28 11:15:40;;;;;;;;;;;;;;;25.76;58.06;100712.78;5048699;28;1569;-65
2021/06/28 11:18:29;;;;;;;;;;;;;;;25.75;58.15;100709.25;5047364;28;1627;-65
2021/06/28 11:21:34;;;;;;;;;;;;;;;25.72;57.32;100711.34;5040437;28;1572;-65
2021/06/28 11:24:30;;;;;;;;;;;;;;;25.73;57.31;100707.72;5035215;28;966;-65
2021/06/28 11:27:21;;;;;;;;;;;;;;;25.74;58.38;100707.59;5042577;28;1934;-65
2021/06/28 11:30:12;;;;;;;;;;;;;;;25.78;57.97;100701.00;5049059;28;1086;-65
2021/06/28 11:33:06;;;;;;;;;;;;;;;25.79;58.24;100699.16;5048340;28;1261;-66
2021/06/28 11:35:52;;;;;;;;;;;;;;;25.79;58.11;100699.16;5049067;28;624;-66
2021/06/28 11:38:38;;;;;;;;;;;;;;;25.79;57.41;100702.69;5048525;28;1366;-66
2021/06/28 11:41:25;;;;;;;;;;;;;;;25.79;58.45;100696.50;5048783;28;1389;-66
2021/06/28 11:44:22;;;;;;;;;;;;;;;25.79;58.53;100701.84;5048563;28;1042;-65
2021/06/28 11:47:08;;;;;;;;;;;;;;;25.79;58.75;100701.84;5046548;28;1906;-66
2021/06/28 11:50:13;;;;;;;;;;;;;;;25.80;57.99;100703.53;5045611;28;1184;-65
2021/06/28 11:53:00;;;;;;;;;;;;;;;25.81;58.42;100691.88;5046987;28;1295;-66
2021/06/28 11:55:46;;;;;;;;;;;;;;;25.81;59.33;100694.53;5042867;28;1479;-66
2021/06/28 11:58:34;;;;;;;;;;;;;;;25.81;58.88;100691.88;5036273;28;1347;-64
2021/06/28 12:01:21;;;;;;;;;;;;;;;25.82;57.96;100688.22;5027441;28;667;-65
2021/06/28 12:04:17;;;;;;;;;;;;;;;25.81;58.01;100683.88;5028119;28;1129;-65
2021/06/28 12:07:03;;;;;;;;;;;;;;;25.82;58.18;100681.06;5028392;28;1906;-66
2021/06/28 12:09:49;;;;;;;;;;;;;;;25.82;58.55;100674.88;5029101;28;1040;-66
2021/06/28 12:12:35;;;;;;;;;;;;;;;25.82;59.44;100669.56;5038712;28;1367;-66
2021/06/28 12:15:28;;;;;;;;;;;;;;;25.82;58.62;100662.41;5027372;28;1029;-66
2021/06/28 12:18:17;;;;;;;;;;;;;;;25.82;58.33;100657.06;5026389;28;1455;-65
2021/06/28 12:21:03;;;;;;;;;;;;;;;25.84;58.47;100663.09;5027912;28;664;-66
2021/06/28 12:23:58;;;;;;;;;;;;;;;25.87;57.36;100667.34;5027920;28;1067;-67
2021/06/28 12:27:01;;;;;;;;;;;;;;;25.87;57.42;100659.34;5040665;28;1971;-67
2021/06/28 12:29:47;;;;;;;;;;;;;;;25.89;57.48;100665.38;5026542;28;1533;-67
2021/06/28 12:32:34;;;;;;;;;;;;;;;25.92;57.75;100670.44;5028062;28;1286;-65
2021/06/28 12:35:23;;;;;;;;;;;;;;;25.90;57.66;100667.06;5028517;28;1083;-67
2021/06/28 12:38:13;;;;;;;;;;;;;;;25.87;58.23;100662.00;5028034;28;1385;-66
2021/06/28 12:40:58;;;;;;;;;;;;;;;25.93;59.31;100661.47;5036784;28;1647;-66
2021/06/28 12:43:44;;;;;;;;;;;;;;;25.94;58.46;100655.97;5043666;28;1288;-64
2021/06/28 12:46:30;;;;;;;;;;;;;;;25.93;58.00;100656.94;5046002;28;1926;-66
2021/06/28 12:49:16;;;;;;;;;;;;;;;25.92;58.34;100651.75;5047667;28;966;-65
2021/06/28 12:52:34;;;;;;;;;;;;;;;25.90;57.90;100651.06;5035523;28;1532;-66
2021/06/28 12:55:27;;;;;;;;;;;;;;;25.90;58.54;100659.88;5000995;28;1130;-67
2021/06/28 12:58:13;;;;;;;;;;;;;;;25.98;59.17;100652.06;5054303;28;1333;-64
2021/06/28 13:00:59;;;;;;;;;;;;;;;25.96;58.36;100643.34;5046534;28;703;-65
2021/06/28 13:03:44;;;;;;;;;;;;;;;26.02;58.93;100645.47;5046573;28;1285;-66
2021/06/28 13:06:33;;;;;;;;;;;;;;;26.03;58.93;100646.31;5046303;28;1296;-69
2021/06/28 13:09:19;;;;;;;;;;;;;;;26.05;59.59;100644.38;5046380;28;1106;-66
2021/06/28 13:12:05;;;;;;;;;;;;;;;26.09;59.07;100640.41;5045987;28;1312;-66
2021/06/28 13:15:16;;;;;;;;;;;;;;;26.12;59.69;100634.81;5056747;28;1125;-67
2021/06/28 13:18:02;;;;;;;;;;;;;;;26.22;60.22;100634.88;5050004;28;1405;-65
2021/06/28 13:20:48;;;;;;;;;;;;;;;26.22;59.82;100635.72;5063059;28;675;-68
2021/06/28 13:23:33;;;;;;;;;;;;;;;26.22;59.02;100624.19;5048702;28;1357;-71
2021/06/28 13:26:22;;;;;;;;;;;;;;;26.13;58.39;100627.66;5045670;28;1011;-68
2021/06/28 13:29:10;;;;;;;;;;;;;;;25.96;57.49;100635.31;5050214;28;1072;-68
2021/06/28 13:31:56;;;;;;;;;;;;;;;25.89;55.98;100628.88;5049864;28;1414;-69
2021/06/28 13:34:44;;;;;;;;;;;;;;;25.85;55.57;100607.91;5050058;28;1045;-69
2021/06/28 13:37:34;;;;;;;;;;;;;;;25.80;54.70;100621.69;5049720;28;1288;-69
2021/06/28 13:40:20;;;;;;;;;;;;;;;25.77;54.09;100621.09;5050415;28;1068;-73
2021/06/28 13:43:14;;;;;;;;;;;;;;;25.71;53.69;100618.97;5049983;28;1341;-71
2021/06/28 13:46:00;;;;;;;;;;;;;;;25.67;53.44;100618.41;5049655;28;1145;-69
2021/06/28 13:48:45;;;;;;;;;;;;;;;25.64;53.10;100613.34;5056576;28;1910;-71
2021/06/28 13:51:31;;;;;;;;;;;;;;;25.62;52.86;100615.28;5063809;28;1331;-69
2021/06/28 13:54:16;;;;;;;;;;;;;;;25.59;52.32;100610.22;5038979;28;1400;-69
2021/06/28 13:57:01;;;;;;;;;;;;;;;25.59;52.81;100610.22;5039607;28;1316;-69
2021/06/28 13:59:46;;;;;;;;;;;;;;;25.61;52.81;100615.41;5049845;28;1114;-69
2021/06/28 14:02:32;;;;;;;;;;;;;;;25.60;52.44;100614.56;5049384;28;1299;-70
2021/06/28 14:05:17;;;;;;;;;;;;;;;25.60;52.37;100617.22;5047461;28;1537;-70
2021/06/28 14:08:03;;;;;;;;;;;;;;;25.59;52.58;100609.38;5048625;28;1983;-71
2021/06/28 14:11:02;;;;;;;;;;;;;;;25.57;52.70;100605.97;5048733;28;1549;-71
2021/06/28 14:13:48;;;;;;;;;;;;;;;25.54;52.56;100604.44;5047096;28;1539;-67
2021/06/28 14:16:33;;;;;;;;;;;;;;;25.51;52.34;100608.22;5042252;28;1465;-65
2021/06/28 14:19:19;;;;;;;;;;;;;;;25.50;52.44;100608.38;5042910;28;1069;-66
2021/06/28 14:22:04;;;;;;;;;;;;;;;25.49;52.13;100602.19;5048103;28;1356;-69
2021/06/28 14:24:50;;;;;;;;;;;;;;;25.48;52.25;100605.81;5029327;28;987;-68
2021/06/28 14:27:36;;;;;;;;;;;;;;;25.47;52.09;100605.94;5072292;28;1909;-71
2021/06/28 14:30:25;;;;;;;;;;;;;;;25.43;52.21;100600.03;5041840;28;1001;-69